sensor_id;sensor_type;location;lat;lon;timestamp;P1;durP1;ratioP1;P2;durP2;ratioP2
20110;SDS011;10216;42.658;23.248;2022-10-22T00:01:11;16.87;;;13.53;;
20110;SDS011;10216;42.658;23.248;2022-10-22T00:03:37;17.70;;;14.13;;
20110;SDS011;10216;42.658;23.248;2022-10-22T00:06:02;17.13;;;14.20;;
20110;SDS011;10216;42.658;23.248;2022-10-22T00:08:30;16.33;;;13.97;;
20110;SDS011;10216;42.658;23.248;2022-10-22T00:10:55;17.63;;;13.93;;
20110;SDS011;10216;42.658;23.248;2022-10-22T00:13:21;15.57;;;13.90;;
20110;SDS011;10216;42.658;23.248;2022-10-22T00:15:46;18.30;;;14.63;;
20110;SDS011;10216;42.658;23.248;2022-10-22T00:18:12;18.40;;;14.70;;
20110;SDS011;10216;42.658;23.248;2022-10-22T00:20:37;17.90;;;14.97;;
20110;SDS011;10216;42.658;23.248;2022-10-22T00:23:02;14.83;;;13.20;;
20110;SDS011;10216;42.658;23.248;2022-10-22T00:25:28;19.73;;;14.57;;
20110;SDS011;10216;42.658;23.248;2022-10-22T00:27:55;17.17;;;13.67;;
20110;SDS011;10216;42.658;23.248;2022-10-22T00:30:20;17.13;;;14.57;;
20110;SDS011;10216;42.658;23.248;2022-10-22T00:32:45;18.23;;;14.93;;
20110;SDS011;10216;42.658;23.248;2022-10-22T00:35:11;17.33;;;14.20;;
20110;SDS011;10216;42.658;23.248;2022-10-22T00:37:36;20.27;;;15.57;;
20110;SDS011;10216;42.658;23.248;2022-10-22T00:40:02;17.70;;;15.13;;
20110;SDS011;10216;42.658;23.248;2022-10-22T00:42:28;20.43;;;15.70;;
20110;SDS011;10216;42.658;23.248;2022-10-22T00:47:38;19.07;;;14.20;;
20110;SDS011;10216;42.658;23.248;2022-10-22T00:50:08;20.00;;;14.67;;
20110;SDS011;10216;42.658;23.248;2022-10-22T00:52:37;17.83;;;14.90;;
20110;SDS011;10216;42.658;23.248;2022-10-22T00:55:02;18.00;;;14.77;;
20110;SDS011;10216;42.658;23.248;2022-10-22T00:57:29;20.13;;;15.77;;
20110;SDS011;10216;42.658;23.248;2022-10-22T00:59:55;22.63;;;16.00;;
20110;SDS011;10216;42.658;23.248;2022-10-22T01:02:21;20.30;;;16.37;;
20110;SDS011;10216;42.658;23.248;2022-10-22T01:04:47;20.83;;;16.87;;
20110;SDS011;10216;42.658;23.248;2022-10-22T01:07:16;19.07;;;16.37;;
20110;SDS011;10216;42.658;23.248;2022-10-22T01:21:33;22.50;;;17.60;;
20110;SDS011;10216;42.658;23.248;2022-10-22T01:29:49;25.27;;;19.67;;
20110;SDS011;10216;42.658;23.248;2022-10-22T01:32:22;27.30;;;19.73;;
20110;SDS011;10216;42.658;23.248;2022-10-22T01:34:51;27.30;;;20.00;;
20110;SDS011;10216;42.658;23.248;2022-10-22T01:37:21;25.83;;;21.17;;
20110;SDS011;10216;42.658;23.248;2022-10-22T01:39:48;31.50;;;21.50;;
20110;SDS011;10216;42.658;23.248;2022-10-22T01:42:14;28.47;;;20.53;;
20110;SDS011;10216;42.658;23.248;2022-10-22T01:44:40;27.07;;;19.50;;
20110;SDS011;10216;42.658;23.248;2022-10-22T01:47:17;22.60;;;18.63;;
20110;SDS011;10216;42.658;23.248;2022-10-22T01:50:09;21.90;;;17.43;;
20110;SDS011;10216;42.658;23.248;2022-10-22T01:52:50;21.53;;;17.10;;
20110;SDS011;10216;42.658;23.248;2022-10-22T01:55:36;21.23;;;15.70;;
20110;SDS011;10216;42.658;23.248;2022-10-22T02:04:22;21.10;;;16.57;;
20110;SDS011;10216;42.658;23.248;2022-10-22T02:06:50;23.37;;;17.83;;
20110;SDS011;10216;42.658;23.248;2022-10-22T02:09:20;24.37;;;18.67;;
20110;SDS011;10216;42.658;23.248;2022-10-22T02:11:49;23.57;;;18.03;;
20110;SDS011;10216;42.658;23.248;2022-10-22T02:14:15;21.23;;;17.77;;
20110;SDS011;10216;42.658;23.248;2022-10-22T02:16:43;20.53;;;16.47;;
20110;SDS011;10216;42.658;23.248;2022-10-22T02:21:48;22.13;;;15.97;;
20110;SDS011;10216;42.658;23.248;2022-10-22T02:24:14;22.17;;;16.40;;
20110;SDS011;10216;42.658;23.248;2022-10-22T02:29:19;20.90;;;14.07;;
20110;SDS011;10216;42.658;23.248;2022-10-22T02:31:52;18.70;;;14.90;;
20110;SDS011;10216;42.658;23.248;2022-10-22T02:34:20;17.60;;;15.13;;
20110;SDS011;10216;42.658;23.248;2022-10-22T02:36:50;17.67;;;14.67;;
20110;SDS011;10216;42.658;23.248;2022-10-22T02:39:16;16.63;;;14.47;;
20110;SDS011;10216;42.658;23.248;2022-10-22T02:41:44;19.27;;;13.83;;
20110;SDS011;10216;42.658;23.248;2022-10-22T02:44:09;17.80;;;13.73;;
20110;SDS011;10216;42.658;23.248;2022-10-22T02:46:36;14.47;;;12.77;;
20110;SDS011;10216;42.658;23.248;2022-10-22T02:49:04;17.07;;;13.20;;
20110;SDS011;10216;42.658;23.248;2022-10-22T02:51:30;17.43;;;14.00;;
20110;SDS011;10216;42.658;23.248;2022-10-22T02:53:56;16.03;;;14.17;;
20110;SDS011;10216;42.658;23.248;2022-10-22T02:56:21;17.13;;;14.33;;
20110;SDS011;10216;42.658;23.248;2022-10-22T02:58:46;18.77;;;13.80;;
20110;SDS011;10216;42.658;23.248;2022-10-22T03:01:12;17.73;;;14.67;;
20110;SDS011;10216;42.658;23.248;2022-10-22T03:03:37;19.40;;;14.43;;
20110;SDS011;10216;42.658;23.248;2022-10-22T03:06:02;16.80;;;14.27;;
20110;SDS011;10216;42.658;23.248;2022-10-22T03:08:29;21.80;;;15.50;;
20110;SDS011;10216;42.658;23.248;2022-10-22T03:10:54;20.30;;;15.77;;
20110;SDS011;10216;42.658;23.248;2022-10-22T03:13:19;18.47;;;15.33;;
20110;SDS011;10216;42.658;23.248;2022-10-22T03:15:47;20.80;;;16.03;;
20110;SDS011;10216;42.658;23.248;2022-10-22T03:18:13;21.57;;;16.13;;
20110;SDS011;10216;42.658;23.248;2022-10-22T03:20:38;19.67;;;15.90;;
20110;SDS011;10216;42.658;23.248;2022-10-22T03:23:04;23.10;;;16.20;;
20110;SDS011;10216;42.658;23.248;2022-10-22T03:25:29;19.73;;;15.20;;
20110;SDS011;10216;42.658;23.248;2022-10-22T03:27:59;19.47;;;15.40;;
20110;SDS011;10216;42.658;23.248;2022-10-22T03:30:26;19.17;;;15.20;;
20110;SDS011;10216;42.658;23.248;2022-10-22T03:32:52;21.67;;;16.10;;
20110;SDS011;10216;42.658;23.248;2022-10-22T03:35:17;19.80;;;15.67;;
20110;SDS011;10216;42.658;23.248;2022-10-22T03:37:42;20.77;;;15.77;;
20110;SDS011;10216;42.658;23.248;2022-10-22T03:40:08;19.30;;;15.90;;
20110;SDS011;10216;42.658;23.248;2022-10-22T03:42:35;19.37;;;15.57;;
20110;SDS011;10216;42.658;23.248;2022-10-22T03:45:00;20.90;;;15.93;;
20110;SDS011;10216;42.658;23.248;2022-10-22T03:47:26;22.23;;;17.00;;
20110;SDS011;10216;42.658;23.248;2022-10-22T03:49:52;19.83;;;16.87;;
20110;SDS011;10216;42.658;23.248;2022-10-22T03:52:17;24.40;;;17.17;;
20110;SDS011;10216;42.658;23.248;2022-10-22T03:54:42;21.53;;;17.83;;
20110;SDS011;10216;42.658;23.248;2022-10-22T03:57:08;22.70;;;17.20;;
20110;SDS011;10216;42.658;23.248;2022-10-22T03:59:36;19.53;;;16.63;;
20110;SDS011;10216;42.658;23.248;2022-10-22T04:02:03;23.03;;;17.33;;
20110;SDS011;10216;42.658;23.248;2022-10-22T04:04:29;20.30;;;16.97;;
20110;SDS011;10216;42.658;23.248;2022-10-22T04:06:54;26.53;;;18.40;;
20110;SDS011;10216;42.658;23.248;2022-10-22T04:09:20;23.63;;;19.10;;
20110;SDS011;10216;42.658;23.248;2022-10-22T04:11:45;24.87;;;19.87;;
20110;SDS011;10216;42.658;23.248;2022-10-22T04:14:11;25.17;;;19.67;;
20110;SDS011;10216;42.658;23.248;2022-10-22T04:16:37;25.87;;;19.80;;
20110;SDS011;10216;42.658;23.248;2022-10-22T04:19:04;25.40;;;20.30;;
20110;SDS011;10216;42.658;23.248;2022-10-22T04:21:30;23.47;;;19.87;;
20110;SDS011;10216;42.658;23.248;2022-10-22T04:23:55;25.20;;;19.77;;
20110;SDS011;10216;42.658;23.248;2022-10-22T04:26:21;24.23;;;20.30;;
20110;SDS011;10216;42.658;23.248;2022-10-22T04:28:48;26.63;;;20.47;;
20110;SDS011;10216;42.658;23.248;2022-10-22T04:31:16;25.70;;;19.77;;
20110;SDS011;10216;42.658;23.248;2022-10-22T04:33:43;22.67;;;19.63;;
20110;SDS011;10216;42.658;23.248;2022-10-22T04:36:12;23.30;;;20.17;;
20110;SDS011;10216;42.658;23.248;2022-10-22T04:38:39;23.30;;;18.00;;
20110;SDS011;10216;42.658;23.248;2022-10-22T04:41:10;21.70;;;17.57;;
20110;SDS011;10216;42.658;23.248;2022-10-22T04:43:36;21.30;;;17.33;;
20110;SDS011;10216;42.658;23.248;2022-10-22T04:46:01;20.27;;;16.97;;
20110;SDS011;10216;42.658;23.248;2022-10-22T04:48:26;21.50;;;18.10;;
20110;SDS011;10216;42.658;23.248;2022-10-22T04:50:52;19.50;;;16.90;;
20110;SDS011;10216;42.658;23.248;2022-10-22T04:53:17;22.00;;;17.50;;
20110;SDS011;10216;42.658;23.248;2022-10-22T04:55:42;23.33;;;18.17;;
20110;SDS011;10216;42.658;23.248;2022-10-22T04:58:08;24.27;;;18.47;;
20110;SDS011;10216;42.658;23.248;2022-10-22T05:00:33;23.70;;;18.27;;
20110;SDS011;10216;42.658;23.248;2022-10-22T05:02:58;23.10;;;18.93;;
20110;SDS011;10216;42.658;23.248;2022-10-22T05:05:24;23.13;;;19.53;;
20110;SDS011;10216;42.658;23.248;2022-10-22T05:07:50;28.17;;;20.40;;
20110;SDS011;10216;42.658;23.248;2022-10-22T05:10:15;25.27;;;20.83;;
20110;SDS011;10216;42.658;23.248;2022-10-22T05:12:41;30.33;;;22.33;;
20110;SDS011;10216;42.658;23.248;2022-10-22T05:15:06;32.70;;;23.70;;
20110;SDS011;10216;42.658;23.248;2022-10-22T05:17:34;27.77;;;23.10;;
20110;SDS011;10216;42.658;23.248;2022-10-22T05:20:01;30.27;;;22.10;;
20110;SDS011;10216;42.658;23.248;2022-10-22T05:22:28;27.33;;;22.73;;
20110;SDS011;10216;42.658;23.248;2022-10-22T05:24:54;29.40;;;21.20;;
20110;SDS011;10216;42.658;23.248;2022-10-22T05:27:19;28.07;;;21.30;;
20110;SDS011;10216;42.658;23.248;2022-10-22T05:29:45;25.70;;;19.67;;
20110;SDS011;10216;42.658;23.248;2022-10-22T05:32:10;25.17;;;20.53;;
20110;SDS011;10216;42.658;23.248;2022-10-22T05:34:35;33.10;;;20.87;;
20110;SDS011;10216;42.658;23.248;2022-10-22T05:37:01;21.87;;;19.43;;
20110;SDS011;10216;42.658;23.248;2022-10-22T05:39:26;25.10;;;20.27;;
20110;SDS011;10216;42.658;23.248;2022-10-22T05:41:52;27.23;;;21.00;;
20110;SDS011;10216;42.658;23.248;2022-10-22T05:44:18;32.10;;;21.90;;
20110;SDS011;10216;42.658;23.248;2022-10-22T05:46:43;29.70;;;21.27;;
20110;SDS011;10216;42.658;23.248;2022-10-22T05:49:10;30.40;;;22.70;;
20110;SDS011;10216;42.658;23.248;2022-10-22T05:51:37;28.87;;;22.53;;
20110;SDS011;10216;42.658;23.248;2022-10-22T05:54:03;29.17;;;22.10;;
20110;SDS011;10216;42.658;23.248;2022-10-22T05:56:30;32.67;;;22.83;;
20110;SDS011;10216;42.658;23.248;2022-10-22T05:58:58;26.70;;;22.67;;
20110;SDS011;10216;42.658;23.248;2022-10-22T06:01:29;28.63;;;24.20;;
20110;SDS011;10216;42.658;23.248;2022-10-22T06:03:56;33.03;;;24.00;;
20110;SDS011;10216;42.658;23.248;2022-10-22T06:06:37;31.00;;;25.43;;
20110;SDS011;10216;42.658;23.248;2022-10-22T06:11:51;37.87;;;28.13;;
20110;SDS011;10216;42.658;23.248;2022-10-22T06:14:17;38.30;;;30.53;;
20110;SDS011;10216;42.658;23.248;2022-10-22T06:16:43;36.73;;;28.70;;
20110;SDS011;10216;42.658;23.248;2022-10-22T06:19:09;39.27;;;29.37;;
20110;SDS011;10216;42.658;23.248;2022-10-22T06:21:36;38.27;;;29.43;;
20110;SDS011;10216;42.658;23.248;2022-10-22T06:24:02;36.43;;;29.00;;
20110;SDS011;10216;42.658;23.248;2022-10-22T06:26:28;39.70;;;29.43;;
20110;SDS011;10216;42.658;23.248;2022-10-22T06:28:54;37.30;;;29.00;;
20110;SDS011;10216;42.658;23.248;2022-10-22T06:31:21;44.57;;;31.37;;
20110;SDS011;10216;42.658;23.248;2022-10-22T06:33:47;37.83;;;31.07;;
20110;SDS011;10216;42.658;23.248;2022-10-22T06:36:14;42.60;;;31.83;;
20110;SDS011;10216;42.658;23.248;2022-10-22T06:38:42;36.63;;;30.57;;
20110;SDS011;10216;42.658;23.248;2022-10-22T06:41:15;38.13;;;28.73;;
20110;SDS011;10216;42.658;23.248;2022-10-22T06:43:42;38.57;;;29.13;;
20110;SDS011;10216;42.658;23.248;2022-10-22T06:46:11;34.50;;;27.60;;
20110;SDS011;10216;42.658;23.248;2022-10-22T06:48:38;32.87;;;27.17;;
20110;SDS011;10216;42.658;23.248;2022-10-22T06:51:05;32.30;;;26.03;;
20110;SDS011;10216;42.658;23.248;2022-10-22T06:53:33;35.70;;;27.37;;
20110;SDS011;10216;42.658;23.248;2022-10-22T06:56:09;31.87;;;25.50;;
20110;SDS011;10216;42.658;23.248;2022-10-22T06:58:36;32.50;;;26.47;;
20110;SDS011;10216;42.658;23.248;2022-10-22T07:01:03;36.87;;;26.13;;
20110;SDS011;10216;42.658;23.248;2022-10-22T07:03:33;33.73;;;25.97;;
20110;SDS011;10216;42.658;23.248;2022-10-22T07:06:02;32.23;;;26.27;;
20110;SDS011;10216;42.658;23.248;2022-10-22T07:08:29;32.17;;;26.47;;
20110;SDS011;10216;42.658;23.248;2022-10-22T07:10:55;38.13;;;26.87;;
20110;SDS011;10216;42.658;23.248;2022-10-22T07:13:22;32.93;;;26.30;;
20110;SDS011;10216;42.658;23.248;2022-10-22T07:15:51;34.07;;;26.13;;
20110;SDS011;10216;42.658;23.248;2022-10-22T07:18:18;29.20;;;25.43;;
20110;SDS011;10216;42.658;23.248;2022-10-22T07:20:44;35.47;;;24.70;;
20110;SDS011;10216;42.658;23.248;2022-10-22T07:23:11;38.47;;;24.97;;
20110;SDS011;10216;42.658;23.248;2022-10-22T07:25:36;29.80;;;23.70;;
20110;SDS011;10216;42.658;23.248;2022-10-22T07:28:02;29.17;;;23.07;;
20110;SDS011;10216;42.658;23.248;2022-10-22T07:30:27;28.60;;;23.97;;
20110;SDS011;10216;42.658;23.248;2022-10-22T07:32:52;31.53;;;25.57;;
20110;SDS011;10216;42.658;23.248;2022-10-22T07:35:18;33.40;;;26.00;;
20110;SDS011;10216;42.658;23.248;2022-10-22T07:37:43;33.83;;;23.23;;
20110;SDS011;10216;42.658;23.248;2022-10-22T07:40:09;30.00;;;25.30;;
20110;SDS011;10216;42.658;23.248;2022-10-22T07:42:34;30.57;;;25.20;;
20110;SDS011;10216;42.658;23.248;2022-10-22T07:45:00;34.20;;;26.33;;
20110;SDS011;10216;42.658;23.248;2022-10-22T07:47:25;34.33;;;24.90;;
20110;SDS011;10216;42.658;23.248;2022-10-22T07:49:50;28.60;;;24.10;;
20110;SDS011;10216;42.658;23.248;2022-10-22T07:52:18;27.33;;;23.70;;
20110;SDS011;10216;42.658;23.248;2022-10-22T07:54:43;26.90;;;22.43;;
20110;SDS011;10216;42.658;23.248;2022-10-22T07:57:08;25.73;;;21.87;;
20110;SDS011;10216;42.658;23.248;2022-10-22T07:59:34;28.03;;;22.47;;
20110;SDS011;10216;42.658;23.248;2022-10-22T08:01:59;28.83;;;20.33;;
20110;SDS011;10216;42.658;23.248;2022-10-22T08:04:24;26.20;;;22.40;;
20110;SDS011;10216;42.658;23.248;2022-10-22T08:06:50;24.13;;;21.40;;
20110;SDS011;10216;42.658;23.248;2022-10-22T08:09:15;27.20;;;23.07;;
20110;SDS011;10216;42.658;23.248;2022-10-22T08:11:41;24.10;;;20.80;;
20110;SDS011;10216;42.658;23.248;2022-10-22T08:14:06;25.57;;;21.50;;
20110;SDS011;10216;42.658;23.248;2022-10-22T08:16:31;28.07;;;21.27;;
20110;SDS011;10216;42.658;23.248;2022-10-22T08:18:57;29.13;;;22.50;;
20110;SDS011;10216;42.658;23.248;2022-10-22T08:21:22;30.43;;;20.77;;
20110;SDS011;10216;42.658;23.248;2022-10-22T08:23:47;36.07;;;25.50;;
20110;SDS011;10216;42.658;23.248;2022-10-22T08:26:13;58.87;;;29.67;;
20110;SDS011;10216;42.658;23.248;2022-10-22T08:28:38;26.97;;;21.10;;
20110;SDS011;10216;42.658;23.248;2022-10-22T08:31:05;81.53;;;35.53;;
20110;SDS011;10216;42.658;23.248;2022-10-22T08:33:32;32.33;;;21.90;;
20110;SDS011;10216;42.658;23.248;2022-10-22T08:35:57;26.63;;;21.60;;
20110;SDS011;10216;42.658;23.248;2022-10-22T08:38:23;41.10;;;26.60;;
20110;SDS011;10216;42.658;23.248;2022-10-22T08:40:50;32.73;;;23.20;;
20110;SDS011;10216;42.658;23.248;2022-10-22T08:43:40;28.17;;;22.23;;
20110;SDS011;10216;42.658;23.248;2022-10-22T08:48:53;31.77;;;22.17;;
20110;SDS011;10216;42.658;23.248;2022-10-22T08:51:26;27.00;;;21.83;;
20110;SDS011;10216;42.658;23.248;2022-10-22T08:56:44;31.73;;;22.87;;
20110;SDS011;10216;42.658;23.248;2022-10-22T09:00:00;25.20;;;22.10;;
20110;SDS011;10216;42.658;23.248;2022-10-22T09:07:58;27.70;;;22.33;;
20110;SDS011;10216;42.658;23.248;2022-10-22T09:10:26;30.93;;;21.37;;
20110;SDS011;10216;42.658;23.248;2022-10-22T09:12:56;28.47;;;20.87;;
20110;SDS011;10216;42.658;23.248;2022-10-22T09:15:22;25.87;;;22.60;;
20110;SDS011;10216;42.658;23.248;2022-10-22T09:23:31;29.67;;;21.53;;
20110;SDS011;10216;42.658;23.248;2022-10-22T09:26:01;29.10;;;22.30;;
20110;SDS011;10216;42.658;23.248;2022-10-22T09:28:29;27.07;;;21.37;;
20110;SDS011;10216;42.658;23.248;2022-10-22T09:30:54;23.30;;;20.37;;
20110;SDS011;10216;42.658;23.248;2022-10-22T09:33:23;25.83;;;21.67;;
20110;SDS011;10216;42.658;23.248;2022-10-22T09:35:54;24.87;;;20.47;;
20110;SDS011;10216;42.658;23.248;2022-10-22T09:38:24;23.57;;;20.03;;
20110;SDS011;10216;42.658;23.248;2022-10-22T09:40:52;28.67;;;21.00;;
20110;SDS011;10216;42.658;23.248;2022-10-22T09:43:20;25.93;;;20.77;;
20110;SDS011;10216;42.658;23.248;2022-10-22T09:45:46;29.97;;;20.80;;
20110;SDS011;10216;42.658;23.248;2022-10-22T09:48:22;27.33;;;21.47;;
20110;SDS011;10216;42.658;23.248;2022-10-22T09:50:56;26.70;;;20.50;;
20110;SDS011;10216;42.658;23.248;2022-10-22T09:53:31;32.03;;;21.83;;
20110;SDS011;10216;42.658;23.248;2022-10-22T09:56:05;27.70;;;20.80;;
20110;SDS011;10216;42.658;23.248;2022-10-22T09:58:40;24.30;;;19.27;;
20110;SDS011;10216;42.658;23.248;2022-10-22T10:01:07;27.67;;;20.13;;
20110;SDS011;10216;42.658;23.248;2022-10-22T10:03:32;27.53;;;20.20;;
20110;SDS011;10216;42.658;23.248;2022-10-22T10:05:58;24.30;;;19.37;;
20110;SDS011;10216;42.658;23.248;2022-10-22T10:08:26;23.87;;;19.97;;
20110;SDS011;10216;42.658;23.248;2022-10-22T10:13:34;30.63;;;21.93;;
20110;SDS011;10216;42.658;23.248;2022-10-22T10:26:52;26.77;;;21.33;;
20110;SDS011;10216;42.658;23.248;2022-10-22T10:32:16;24.43;;;19.57;;
20110;SDS011;10216;42.658;23.248;2022-10-22T10:35:03;26.30;;;19.67;;
20110;SDS011;10216;42.658;23.248;2022-10-22T10:37:37;28.63;;;21.90;;
20110;SDS011;10216;42.658;23.248;2022-10-22T10:40:18;25.27;;;19.98;;
20110;SDS011;10216;42.658;23.248;2022-10-22T10:43:02;25.83;;;20.98;;
20110;SDS011;10216;42.658;23.248;2022-10-22T10:45:36;27.02;;;20.65;;
20110;SDS011;10216;42.658;23.248;2022-10-22T10:48:20;32.75;;;20.77;;
20110;SDS011;10216;42.658;23.248;2022-10-22T10:51:11;23.38;;;19.05;;
20110;SDS011;10216;42.658;23.248;2022-10-22T10:53:42;23.85;;;21.17;;
20110;SDS011;10216;42.658;23.248;2022-10-22T10:56:38;21.95;;;18.45;;
20110;SDS011;10216;42.658;23.248;2022-10-22T11:01:41;21.48;;;17.25;;
20110;SDS011;10216;42.658;23.248;2022-10-22T11:06:50;22.42;;;18.25;;
20110;SDS011;10216;42.658;23.248;2022-10-22T11:11:50;22.25;;;17.85;;
20110;SDS011;10216;42.658;23.248;2022-10-22T11:14:22;23.75;;;16.90;;
20110;SDS011;10216;42.658;23.248;2022-10-22T11:17:04;22.05;;;18.95;;
20110;SDS011;10216;42.658;23.248;2022-10-22T11:19:40;26.05;;;18.38;;
20110;SDS011;10216;42.658;23.248;2022-10-22T11:22:13;19.80;;;17.77;;
20110;SDS011;10216;42.658;23.248;2022-10-22T11:27:21;19.33;;;16.48;;
20110;SDS011;10216;42.658;23.248;2022-10-22T11:29:58;20.83;;;16.45;;
20110;SDS011;10216;42.658;23.248;2022-10-22T11:32:28;19.85;;;15.88;;
20110;SDS011;10216;42.658;23.248;2022-10-22T11:34:57;19.60;;;16.30;;
20110;SDS011;10216;42.658;23.248;2022-10-22T11:37:25;21.02;;;16.63;;
20110;SDS011;10216;42.658;23.248;2022-10-22T11:40:05;22.48;;;16.45;;
20110;SDS011;10216;42.658;23.248;2022-10-22T11:42:39;28.10;;;19.08;;
20110;SDS011;10216;42.658;23.248;2022-10-22T11:47:51;22.65;;;17.75;;
20110;SDS011;10216;42.658;23.248;2022-10-22T12:01:15;18.55;;;14.65;;
20110;SDS011;10216;42.658;23.248;2022-10-22T12:07:47;21.85;;;13.95;;
20110;SDS011;10216;42.658;23.248;2022-10-22T12:09:52;33.15;;;15.10;;
20110;SDS011;10216;42.658;23.248;2022-10-22T12:12:18;17.35;;;13.18;;
20110;SDS011;10216;42.658;23.248;2022-10-22T12:14:55;20.13;;;14.10;;
20110;SDS011;10216;42.658;23.248;2022-10-22T12:17:24;29.23;;;13.93;;
20110;SDS011;10216;42.658;23.248;2022-10-22T12:20:01;20.35;;;14.48;;
20110;SDS011;10216;42.658;23.248;2022-10-22T12:22:35;24.15;;;15.07;;
20110;SDS011;10216;42.658;23.248;2022-10-22T12:25:05;18.55;;;14.15;;
20110;SDS011;10216;42.658;23.248;2022-10-22T12:27:42;17.92;;;13.70;;
20110;SDS011;10216;42.658;23.248;2022-10-22T12:30:20;18.55;;;13.10;;
20110;SDS011;10216;42.658;23.248;2022-10-22T12:32:48;26.40;;;12.90;;
20110;SDS011;10216;42.658;23.248;2022-10-22T12:35:19;16.65;;;13.07;;
20110;SDS011;10216;42.658;23.248;2022-10-22T12:37:50;18.80;;;13.00;;
20110;SDS011;10216;42.658;23.248;2022-10-22T12:40:22;12.80;;;11.50;;
20110;SDS011;10216;42.658;23.248;2022-10-22T12:42:51;19.25;;;12.73;;
20110;SDS011;10216;42.658;23.248;2022-10-22T12:45:22;17.45;;;11.13;;
20110;SDS011;10216;42.658;23.248;2022-10-22T12:48:13;13.63;;;10.90;;
20110;SDS011;10216;42.658;23.248;2022-10-22T12:50:48;17.75;;;10.93;;
20110;SDS011;10216;42.658;23.248;2022-10-22T12:53:40;18.08;;;13.80;;
20110;SDS011;10216;42.658;23.248;2022-10-22T12:56:11;15.40;;;11.95;;
20110;SDS011;10216;42.658;23.248;2022-10-22T12:58:41;25.58;;;17.02;;
20110;SDS011;10216;42.658;23.248;2022-10-22T13:01:10;18.63;;;11.40;;
20110;SDS011;10216;42.658;23.248;2022-10-22T13:03:41;16.48;;;10.65;;
20110;SDS011;10216;42.658;23.248;2022-10-22T13:06:21;13.98;;;10.55;;
20110;SDS011;10216;42.658;23.248;2022-10-22T13:08:57;16.77;;;11.00;;
20110;SDS011;10216;42.658;23.248;2022-10-22T13:11:36;15.27;;;9.88;;
20110;SDS011;10216;42.658;23.248;2022-10-22T13:14:05;21.73;;;10.77;;
20110;SDS011;10216;42.658;23.248;2022-10-22T13:16:42;11.75;;;10.55;;
20110;SDS011;10216;42.658;23.248;2022-10-22T13:19:32;16.48;;;11.63;;
20110;SDS011;10216;42.658;23.248;2022-10-22T13:25:41;13.83;;;10.17;;
20110;SDS011;10216;42.658;23.248;2022-10-22T13:30:37;16.00;;;10.90;;
20110;SDS011;10216;42.658;23.248;2022-10-22T13:33:04;17.07;;;10.73;;
20110;SDS011;10216;42.658;23.248;2022-10-22T13:35:42;17.30;;;10.30;;
20110;SDS011;10216;42.658;23.248;2022-10-22T13:38:14;13.97;;;10.60;;
20110;SDS011;10216;42.658;23.248;2022-10-22T13:40:43;19.13;;;10.80;;
20110;SDS011;10216;42.658;23.248;2022-10-22T13:43:09;35.67;;;11.07;;
20110;SDS011;10216;42.658;23.248;2022-10-22T13:45:34;13.13;;;9.23;;
20110;SDS011;10216;42.658;23.248;2022-10-22T13:48:00;18.43;;;10.67;;
20110;SDS011;10216;42.658;23.248;2022-10-22T13:50:25;15.33;;;11.27;;
20110;SDS011;10216;42.658;23.248;2022-10-22T13:55:20;19.17;;;11.17;;
20110;SDS011;10216;42.658;23.248;2022-10-22T13:57:55;15.70;;;11.47;;
20110;SDS011;10216;42.658;23.248;2022-10-22T14:00:24;19.30;;;11.10;;
20110;SDS011;10216;42.658;23.248;2022-10-22T14:02:51;17.07;;;11.10;;
20110;SDS011;10216;42.658;23.248;2022-10-22T14:05:18;15.17;;;11.40;;
20110;SDS011;10216;42.658;23.248;2022-10-22T14:07:44;19.43;;;11.93;;
20110;SDS011;10216;42.658;23.248;2022-10-22T14:12:46;21.13;;;11.10;;
20110;SDS011;10216;42.658;23.248;2022-10-22T14:15:13;19.87;;;11.37;;
20110;SDS011;10216;42.658;23.248;2022-10-22T14:17:41;15.90;;;11.43;;
20110;SDS011;10216;42.658;23.248;2022-10-22T14:20:16;16.77;;;11.37;;
20110;SDS011;10216;42.658;23.248;2022-10-22T14:22:45;17.87;;;11.70;;
20110;SDS011;10216;42.658;23.248;2022-10-22T14:25:13;18.37;;;12.53;;
20110;SDS011;10216;42.658;23.248;2022-10-22T14:27:40;27.77;;;13.07;;
20110;SDS011;10216;42.658;23.248;2022-10-22T14:30:06;34.37;;;14.03;;
20110;SDS011;10216;42.658;23.248;2022-10-22T14:32:31;16.67;;;11.70;;
20110;SDS011;10216;42.658;23.248;2022-10-22T14:34:57;17.83;;;11.80;;
20110;SDS011;10216;42.658;23.248;2022-10-22T14:37:23;27.63;;;13.03;;
20110;SDS011;10216;42.658;23.248;2022-10-22T14:39:49;50.87;;;13.23;;
20110;SDS011;10216;42.658;23.248;2022-10-22T14:42:18;29.53;;;11.43;;
20110;SDS011;10216;42.658;23.248;2022-10-22T14:44:44;19.83;;;10.77;;
20110;SDS011;10216;42.658;23.248;2022-10-22T14:47:10;12.97;;;9.87;;
20110;SDS011;10216;42.658;23.248;2022-10-22T14:49:35;14.30;;;9.83;;
20110;SDS011;10216;42.658;23.248;2022-10-22T14:52:00;18.47;;;10.50;;
20110;SDS011;10216;42.658;23.248;2022-10-22T14:54:26;18.33;;;10.13;;
20110;SDS011;10216;42.658;23.248;2022-10-22T14:56:51;17.00;;;9.67;;
20110;SDS011;10216;42.658;23.248;2022-10-22T14:59:16;13.00;;;8.97;;
20110;SDS011;10216;42.658;23.248;2022-10-22T15:01:42;12.30;;;8.53;;
20110;SDS011;10216;42.658;23.248;2022-10-22T15:04:07;17.00;;;9.00;;
20110;SDS011;10216;42.658;23.248;2022-10-22T15:06:33;11.80;;;8.40;;
20110;SDS011;10216;42.658;23.248;2022-10-22T15:09:00;14.47;;;8.80;;
20110;SDS011;10216;42.658;23.248;2022-10-22T15:11:25;11.47;;;7.93;;
20110;SDS011;10216;42.658;23.248;2022-10-22T15:13:50;10.17;;;7.80;;
20110;SDS011;10216;42.658;23.248;2022-10-22T15:16:16;11.23;;;7.97;;
20110;SDS011;10216;42.658;23.248;2022-10-22T15:18:42;13.30;;;8.70;;
20110;SDS011;10216;42.658;23.248;2022-10-22T15:21:12;9.97;;;8.50;;
20110;SDS011;10216;42.658;23.248;2022-10-22T15:23:39;12.77;;;9.57;;
20110;SDS011;10216;42.658;23.248;2022-10-22T15:26:06;11.70;;;8.70;;
20110;SDS011;10216;42.658;23.248;2022-10-22T15:28:32;12.80;;;9.40;;
20110;SDS011;10216;42.658;23.248;2022-10-22T15:30:58;13.87;;;10.67;;
20110;SDS011;10216;42.658;23.248;2022-10-22T15:33:25;15.27;;;9.47;;
20110;SDS011;10216;42.658;23.248;2022-10-22T15:35:51;18.37;;;10.03;;
20110;SDS011;10216;42.658;23.248;2022-10-22T15:38:17;12.70;;;9.23;;
20110;SDS011;10216;42.658;23.248;2022-10-22T15:40:42;14.77;;;9.43;;
20110;SDS011;10216;42.658;23.248;2022-10-22T15:43:08;12.13;;;8.90;;
20110;SDS011;10216;42.658;23.248;2022-10-22T15:45:33;12.17;;;9.37;;
20110;SDS011;10216;42.658;23.248;2022-10-22T15:47:59;10.70;;;8.17;;
20110;SDS011;10216;42.658;23.248;2022-10-22T15:50:27;10.80;;;8.67;;
20110;SDS011;10216;42.658;23.248;2022-10-22T15:52:52;15.13;;;8.83;;
20110;SDS011;10216;42.658;23.248;2022-10-22T15:55:18;13.00;;;7.80;;
20110;SDS011;10216;42.658;23.248;2022-10-22T15:57:44;9.77;;;7.70;;
20110;SDS011;10216;42.658;23.248;2022-10-22T16:00:09;10.67;;;8.40;;
20110;SDS011;10216;42.658;23.248;2022-10-22T16:02:35;12.67;;;8.13;;
20110;SDS011;10216;42.658;23.248;2022-10-22T16:05:01;14.40;;;8.13;;